Terminal Aerodrome Forecast
Issued by NWS

Home | Current Version | Previous Version | Text Only | Print | Product List | Glossary On
Versions: 1 2 3 4 5 6 7 8 9 10 11 12 13 14 15 16 17 18 19
000
FTUS43 KILX 202328
TAFBMI
TAF
KBMI 202328Z 2100/2124 27008KT P6SM SCT050 BKN100
     FM210300 VRB05KT P6SM VCTS BKN040CB
     FM210500 VRB04KT P6SM SCT050 SCT250
     FM211500 20006KT P6SM SCT050=

USA.gov is the U.S. government's official web portal to all federal, state and local government web resources and services.